Time;durP1;ratioP1;P1;durP2;ratioP2;P2;SDS_P1;SDS_P2;PMS_P1;PMS_P2;Temp;Humidity;BMP_temperature;BMP_pressure;BME280_temperature;BME280_humidity;BME280_pressure;Samples;Min_cycle;Max_cycle;Signal;HPM_P1;HPM_P2
2023/08/07 00:02:12;;;;;;;0.22;0.10;;;9.90;97.90;;;;;;25587705;23;20013;-50
2023/08/07 00:12:14;;;;;;;0.30;0.10;;;10.00;96.50;;;;;;25588627;23;20005;-47
2023/08/07 00:22:16;;;;;;;0.08;0.05;;;9.90;96.10;;;;;;25588398;23;20075;-48
2023/08/07 00:32:18;;;;;;;0.38;0.20;;;10.30;96.30;;;;;;25593641;23;20001;-50
2023/08/07 00:42:20;;;;;;;0.52;0.10;;;10.10;92.70;;;;;;25595342;23;20013;-45
2023/08/07 00:52:22;;;;;;;0.73;0.20;;;10.40;92.90;;;;;;25595035;23;20005;-47
2023/08/07 01:02:23;;;;;;;0.47;0.20;;;10.00;93.50;;;;;;25568542;23;20063;-45
2023/08/07 01:12:33;;;;;;;0.38;0.10;;;9.60;92.90;;;;;;25594434;23;20052;-50
2023/08/07 01:22:35;;;;;;;0.90;0.20;;;9.80;90.90;;;;;;25635025;23;20043;-48
2023/08/07 01:33:04;;;;;;;0.63;0.20;;;9.70;92.60;;;;;;25543895;23;20032;-46
2023/08/07 01:43:06;;;;;;;0.57;0.13;;;9.20;94.40;;;;;;25593155;23;20456;-48
2023/08/07 01:53:09;;;;;;;0.60;0.10;;;8.80;95.10;;;;;;25567314;23;20325;-48
2023/08/07 02:03:11;;;;;;;0.15;0.10;;;8.90;93.80;;;;;;25592170;23;20012;-49
2023/08/07 02:13:13;;;;;;;0.35;0.10;;;9.10;94.10;;;;;;25591967;23;20009;-51
2023/08/07 02:23:15;;;;;;;0.73;0.28;;;9.30;93.80;;;;;;25565131;23;20020;-49
2023/08/07 02:33:17;;;;;;;0.10;0.00;;;9.40;94.50;;;;;;25591307;23;20436;-54
2023/08/07 02:43:20;;;;;;;0.17;0.10;;;9.40;94.90;;;;;;25564207;23;20016;-49
2023/08/07 02:53:21;;;;;;;0.10;0.10;;;9.40;94.70;;;;;;25564010;23;20009;-51
2023/08/07 03:03:23;;;;;;;0.40;0.10;;;9.50;94.70;;;;;;25564738;23;20502;-47
2023/08/07 03:13:26;;;;;;;0.45;0.10;;;9.40;94.60;;;;;;25591342;23;20487;-45
2023/08/07 03:23:28;;;;;;;0.25;0.08;;;9.20;94.70;;;;;;25562995;23;20495;-47
2023/08/07 03:33:31;;;;;;;1.77;0.20;;;9.30;94.10;;;;;;25562854;23;20071;-51
2023/08/07 03:43:33;;;;;;;0.88;0.20;;;9.30;92.40;;;;;;25464352;23;20424;-50
2023/08/07 03:53:36;;;;;;;0.30;0.15;;;10.20;89.20;;;;;;25439977;23;20005;-49
2023/08/07 04:03:38;;;;;;;0.30;0.10;;;10.20;90.80;;;;;;25468415;23;20009;-52
2023/08/07 04:13:41;;;;;;;0.00;0.00;;;9.50;93.70;;;;;;25473486;23;20013;-49
2023/08/07 04:23:44;;;;;;;0.90;0.40;;;9.10;93.90;;;;;;25474674;23;20306;-46
2023/08/07 04:33:46;;;;;;;0.80;0.20;;;9.00;93.90;;;;;;25472915;23;20005;-51
2023/08/07 04:43:48;;;;;;;0.20;0.10;;;9.10;93.60;;;;;;25472593;23;20082;-45
2023/08/07 04:53:50;;;;;;;0.10;0.08;;;9.20;93.50;;;;;;25471940;23;20067;-48
2023/08/07 05:03:52;;;;;;;0.38;0.17;;;9.30;94.40;;;;;;25471541;23;20511;-46
2023/08/07 05:13:54;;;;;;;0.25;0.10;;;9.30;94.40;;;;;;25471135;23;20064;-49
2023/08/07 05:23:56;;;;;;;0.93;0.40;;;9.60;94.60;;;;;;25470860;23;20293;-50
2023/08/07 05:33:57;;;;;;;1.90;0.73;;;9.60;94.30;;;;;;25472372;23;20009;-48
2023/08/07 05:43:59;;;;;;;4.00;1.30;;;9.70;94.70;;;;;;25634446;23;20029;-52
2023/08/07 05:54:01;;;;;;;1.50;0.50;;;9.80;94.10;;;;;;25592818;23;20306;-53
2023/08/07 06:04:03;;;;;;;0.52;0.28;;;9.90;94.20;;;;;;25592341;23;20005;-49
2023/08/07 06:14:05;;;;;;;1.30;0.60;;;10.30;94.50;;;;;;25565850;23;20019;-52
2023/08/07 06:24:07;;;;;;;2.03;0.80;;;10.30;94.00;;;;;;25589883;23;20012;-50
2023/08/07 06:34:09;;;;;;;1.48;0.60;;;10.70;93.70;;;;;;25591058;23;20012;-49
2023/08/07 06:44:11;;;;;;;1.95;0.93;;;;;;;;;;25605550;23;20016;-49
2023/08/07 06:54:13;;;;;;;0.82;0.40;;;15.50;84.90;;;;;;25590099;23;20403;-53
2023/08/07 07:04:15;;;;;;;0.20;0.20;;;15.90;83.60;;;;;;25591317;23;20001;-55
2023/08/07 07:14:17;;;;;;;2.28;0.55;;;16.30;83.10;;;;;;25589782;23;20013;-54
2023/08/07 07:24:18;;;;;;;0.45;0.30;;;16.80;82.80;;;;;;25589460;23;20009;-54
2023/08/07 07:34:21;;;;;;;1.33;0.30;;;17.00;81.70;;;;;;25588975;23;20310;-54
2023/08/07 07:44:23;;;;;;;0.30;0.05;;;17.00;82.50;;;;;;25630105;23;20017;-53
2023/08/07 07:54:24;;;;;;;0.10;0.10;;;16.60;82.10;;;;;;25588816;23;20005;-54
2023/08/07 08:04:27;;;;;;;0.20;0.00;;;16.90;82.00;;;;;;25588469;23;20006;-55
2023/08/07 08:14:29;;;;;;;0.10;0.00;;;17.00;80.50;;;;;;25588388;23;20005;-55
2023/08/07 08:24:31;;;;;;;0.30;0.10;;;17.10;82.40;;;;;;25587955;23;20012;-55
2023/08/07 08:34:34;;;;;;;0.10;0.10;;;16.90;78.90;;;;;;25587487;23;20423;-49
2023/08/07 08:44:38;;;;;;;0.15;0.00;;;17.40;79.40;;;;;;25587549;23;20511;-55
2023/08/07 08:54:41;;;;;;;1.30;0.10;;;17.80;78.70;;;;;;25593405;23;20005;-65
2023/08/07 09:04:44;;;;;;;0.10;0.10;;;17.80;80.20;;;;;;25593835;23;20001;-59
2023/08/07 09:14:53;;;;;;;0.00;0.00;;;17.60;79.10;;;;;;25593294;23;20009;-59
2023/08/07 09:24:56;;;;;;;0.17;0.10;;;16.90;78.20;;;;;;25634625;23;20001;-51
2023/08/07 09:34:58;;;;;;;1.50;0.10;;;17.10;81.30;;;;;;25592357;23;20013;-58
2023/08/07 09:45:01;;;;;;;0.15;0.10;;;17.80;78.70;;;;;;25592584;23;20005;-57
2023/08/07 09:55:04;;;;;;;17.00;1.10;;;18.60;89.00;;;;;;25591747;23;20008;-57
2023/08/07 10:05:08;;;;;;;0.10;0.10;;;20.10;84.70;;;;;;25588654;23;20012;-50
2023/08/07 10:15:10;;;;;;;0.32;0.10;;;20.40;81.50;;;;;;25585918;23;20001;-58
2023/08/07 10:25:12;;;;;;;0.20;0.10;;;20.50;86.60;;;;;;25584773;23;20028;-51
2023/08/07 10:35:33;;;;;;;0.30;0.17;;;20.40;84.90;;;;;;25591484;23;20075;-58
2023/08/07 10:45:36;;;;;;;0.57;0.10;;;20.20;80.60;;;;;;25632418;23;20008;-58
2023/08/07 10:55:48;;;;;;;0.20;0.10;;;20.30;78.30;;;;;;25590850;23;20436;-58
2023/08/07 11:05:50;;;;;;;0.10;0.10;;;20.60;86.10;;;;;;25592011;23;20001;-58
2023/08/07 11:15:52;;;;;;;0.55;0.10;;;21.30;83.90;;;;;;25589896;23;20013;-51
2023/08/07 11:25:56;;;;;;;0.10;0.10;;;21.60;81.90;;;;;;25587519;23;20009;-58
2023/08/07 11:35:58;;;;;;;0.32;0.20;;;21.80;82.50;;;;;;25559973;23;20013;-58
2023/08/07 11:46:09;;;;;;;0.60;0.20;;;22.10;76.70;;;;;;25579586;23;20009;-51
2023/08/07 11:56:17;;;;;;;0.10;0.10;;;21.50;81.00;;;;;;25628732;23;20008;-50
2023/08/07 12:06:19;;;;;;;0.30;0.10;;;20.40;75.20;;;;;;25630055;23;20005;-59
2023/08/07 12:16:21;;;;;;;0.00;0.00;;;18.50;79.00;;;;;;25589147;23;20310;-56
2023/08/07 12:26:25;;;;;;;0.10;0.10;;;18.20;77.10;;;;;;25592453;23;20005;-58
2023/08/07 12:36:27;;;;;;;0.40;0.20;;;18.90;81.20;;;;;;25595966;23;20012;-58
2023/08/07 12:46:30;;;;;;;0.57;0.10;;;18.60;86.20;;;;;;25595691;23;20071;-58
2023/08/07 12:56:31;;;;;;;0.20;0.10;;;18.30;90.40;;;;;;25594085;23;20350;-58
2023/08/07 13:06:34;;;;;;;0.20;0.10;;;20.20;93.30;;;;;;25594230;23;20032;-58
2023/08/07 13:16:35;;;;;;;0.20;0.20;;;21.50;84.40;;;;;;25589500;23;20146;-58
2023/08/07 13:26:44;;;;;;;0.82;0.47;;;21.10;86.90;;;;;;25585198;23;20020;-59
2023/08/07 13:36:46;;;;;;;0.20;0.20;;;21.00;88.00;;;;;;25618108;23;20467;-62
2023/08/07 13:46:48;;;;;;;0.30;0.20;;;20.30;90.80;;;;;;25586156;23;20032;-56
2023/08/07 13:56:50;;;;;;;0.30;0.20;;;19.80;91.80;;;;;;25582030;23;20013;-55
2023/08/07 14:06:52;;;;;;;1.70;0.20;;;19.30;85.00;;;;;;25584084;23;20067;-59
2023/08/07 14:16:57;;;;;;;1.27;0.70;;;19.50;90.60;;;;;;25580550;23;20445;-59
2023/08/07 14:26:58;;;;;;;0.50;0.20;;;20.30;88.20;;;;;;25587300;23;20333;-58
2023/08/07 14:37:04;;;;;;;0.65;0.20;;;19.70;91.00;;;;;;25589205;23;20453;-58
2023/08/07 14:47:06;;;;;;;0.32;0.20;;;19.40;91.30;;;;;;25588326;23;20017;-59
2023/08/07 14:57:08;;;;;;;0.20;0.20;;;19.00;91.00;;;;;;25589789;23;20067;-58
2023/08/07 15:07:10;;;;;;;0.93;0.20;;;19.90;89.30;;;;;;25590292;23;20028;-48
2023/08/07 15:17:12;;;;;;;0.20;0.20;;;20.50;87.80;;;;;;25585756;23;20075;-48
2023/08/07 15:27:14;;;;;;;1.95;0.25;;;19.60;90.60;;;;;;25587989;23;20005;-46
2023/08/07 15:37:16;;;;;;;0.45;0.30;;;18.40;92.70;;;;;;25585587;23;20075;-49
2023/08/07 15:47:18;;;;;;;2.00;0.20;;;17.80;93.90;;;;;;25578146;23;20005;-50
2023/08/07 15:57:20;;;;;;;1.75;0.40;;;17.70;92.00;;;;;;25582681;23;20092;-58
2023/08/07 16:07:22;;;;;;;0.40;0.20;;;16.50;92.60;;;;;;25593822;23;20707;-55
2023/08/07 16:17:23;;;;;;;0.50;0.38;;;14.80;97.00;;;;;;25566445;23;20005;-59
2023/08/07 16:27:25;;;;;;;2.22;0.20;;;14.40;98.50;;;;;;25566740;23;20013;-59
2023/08/07 16:37:28;;;;;;;0.40;0.20;;;13.60;99.50;;;;;;25591595;23;20515;-59
2023/08/07 16:47:30;;;;;;;0.55;0.15;;;12.90;98.10;;;;;;25591642;23;20086;-61
2023/08/07 16:57:32;;;;;;;0.38;0.20;;;12.50;99.60;;;;;;25562886;23;20134;-44
2023/08/07 17:07:35;;;;;;;0.40;0.25;;;12.40;99.00;;;;;;25586055;23;20087;-51
2023/08/07 17:17:37;;;;;;;0.40;0.10;;;12.40;98.90;;;;;;25566202;23;20009;-62
2023/08/07 17:27:41;;;;;;;0.55;0.30;;;12.20;99.90;;;;;;25586838;23;20001;-60
2023/08/07 17:37:43;;;;;;;0.30;0.10;;;12.00;99.90;;;;;;25586871;23;20035;-60
2023/08/07 17:47:45;;;;;;;0.73;0.20;;;11.90;99.90;;;;;;25585687;23;20013;-62
2023/08/07 17:57:47;;;;;;;0.32;0.20;;;11.90;99.60;;;;;;25587593;23;20306;-60
2023/08/07 18:07:49;;;;;;;0.43;0.20;;;11.80;98.40;;;;;;25588898;23;20057;-45
2023/08/07 18:17:51;;;;;;;0.70;0.28;;;11.60;98.50;;;;;;25590517;23;20001;-46
2023/08/07 18:27:53;;;;;;;0.40;0.20;;;11.40;97.80;;;;;;25586881;23;20067;-49
2023/08/07 18:37:56;;;;;;;0.50;0.20;;;11.30;97.10;;;;;;25589820;23;20294;-45
2023/08/07 18:47:58;;;;;;;1.30;0.32;;;11.40;96.10;;;;;;25589295;23;20005;-44
2023/08/07 18:58:02;;;;;;;1.27;0.10;;;11.20;95.70;;;;;;25588446;23;20009;-47
2023/08/07 19:08:04;;;;;;;0.30;0.10;;;11.10;95.00;;;;;;25562240;23;20067;-45
2023/08/07 19:18:06;;;;;;;0.40;0.20;;;10.90;95.40;;;;;;25561001;23;20013;-60
2023/08/07 19:28:09;;;;;;;0.17;0.10;;;10.70;95.20;;;;;;25588035;23;20009;-45
2023/08/07 19:38:12;;;;;;;0.28;0.10;;;10.50;93.90;;;;;;25587344;23;20012;-60
2023/08/07 19:48:14;;;;;;;0.08;0.08;;;10.90;93.60;;;;;;25587398;23;20009;-60
2023/08/07 19:58:19;;;;;;;0.13;0.10;;;10.60;92.40;;;;;;25587740;23;20009;-59
2023/08/07 20:08:21;;;;;;;0.10;0.08;;;10.60;91.40;;;;;;25586647;23;20005;-46
2023/08/07 20:18:23;;;;;;;0.10;0.10;;;10.80;92.80;;;;;;25587030;23;20009;-59
2023/08/07 20:28:26;;;;;;;2.53;0.10;;;10.90;91.40;;;;;;25586838;23;20483;-60
2023/08/07 20:38:28;;;;;;;0.20;0.10;;;10.80;91.90;;;;;;25584825;23;20063;-49
2023/08/07 20:48:30;;;;;;;0.10;0.10;;;10.80;92.10;;;;;;25582347;23;20016;-46
2023/08/07 20:58:33;;;;;;;0.22;0.10;;;10.80;91.70;;;;;;25591379;23;20404;-50
2023/08/07 21:08:38;;;;;;;0.20;0.05;;;10.60;92.40;;;;;;25608320;23;20016;-48
2023/08/07 21:18:39;;;;;;;0.40;0.10;;;10.40;92.50;;;;;;25592681;23;20032;-45
2023/08/07 21:28:41;;;;;;;0.10;0.10;;;10.50;91.70;;;;;;25591427;23;20005;-52
2023/08/07 21:38:43;;;;;;;1.38;0.10;;;10.60;91.70;;;;;;25591512;23;20017;-45
2023/08/07 21:48:45;;;;;;;0.10;0.10;;;10.50;91.70;;;;;;25591759;23;20075;-48
2023/08/07 21:58:46;;;;;;;0.10;0.10;;;10.60;91.60;;;;;;25591516;23;20039;-48
2023/08/07 22:08:48;;;;;;;0.17;0.10;;;10.60;91.10;;;;;;25590714;23;20005;-48
2023/08/07 22:18:50;;;;;;;0.30;0.10;;;10.60;90.90;;;;;;25592255;23;20495;-46
2023/08/07 22:28:52;;;;;;;0.30;0.10;;;10.80;90.30;;;;;;25590021;23;20012;-60
2023/08/07 22:38:54;;;;;;;0.30;0.10;;;10.60;90.80;;;;;;25589640;23;20016;-48
2023/08/07 22:48:55;;;;;;;0.63;0.20;;;10.50;90.90;;;;;;25589407;23;20083;-45
2023/08/07 22:58:57;;;;;;;0.10;0.10;;;10.50;90.90;;;;;;25589357;23;20059;-49
2023/08/07 23:09:00;;;;;;;0.10;0.00;;;10.50;90.50;;;;;;25588231;23;20005;-45
2023/08/07 23:19:02;;;;;;;0.32;0.10;;;10.60;90.50;;;;;;25588238;23;20005;-47
2023/08/07 23:29:04;;;;;;;0.10;0.10;;;10.50;90.40;;;;;;25587956;23;20055;-44
2023/08/07 23:39:06;;;;;;;0.20;0.10;;;10.50;90.90;;;;;;25587593;23;20021;-48
2023/08/07 23:49:07;;;;;;;0.10;0.10;;;10.50;90.20;;;;;;25587562;23;20009;-51
2023/08/07 23:59:10;;;;;;;0.35;0.10;;;10.70;89.60;;;;;;25587680;23;20009;-45
